Flight Track Log - Related Links

Times and Time Zones

All times are in EDT time to prevent confusion due to time zone crossing. See the DAL1809 flight status page for this flight to view local times or setup timezone preferences in your user account.

Time Position Orientation Groundspeed Altitude Reporting Facility
EDT Latitude Longitude Course Direction KTS MPH feet Rate Location/Type
Mon 11:53:51 AM 39.0333 -84.6667 175° South 165 190 1,300  Level Cincinnati TRACON
Mon 11:54:09 AM 39.0333 -84.6667 175° South 165 190 2,200 2,077 Climbing Cincinnati TRACON
Mon 11:55:09 AM 38.9667 -84.6667 180° South 224 258 4,000 2,524 Climbing Cincinnati TRACON
Mon 11:56:00 AM 38.6968 -84.5767 165° South  Level FlightAware Approximate
Mon 11:56:15 AM 38.9000 -84.6833 191° South 273 314 7,500  Level Cincinnati TRACON
Mon 11:57:00 AM 38.5807 -84.5409 167° South  Level FlightAware Approximate
Mon 11:57:03 AM 38.8333 -84.6592 164° South 276 318 10,100  Level Indianapolis Center
Mon 11:58:00 AM 38.4647 -84.5049 165° South  Level FlightAware Approximate
Mon 11:58:04 AM 38.7486 -84.6258 163° South 320 368 12,100  Level Indianapolis Center
Mon 11:59:00 AM 38.3461 -84.4936 175° South  Level FlightAware Approximate
Mon 11:59:06 AM 38.6556 -84.5872 162° South 348 400 14,500  Level Indianapolis Center
Mon 12:00:08 PM 38.5553 -84.5597 168° South 366 421 17,100 2,244 Climbing Indianapolis Center
Mon 12:01:09 PM 38.4497 -84.5325 169° South 384 442 19,100 2,098 Climbing Indianapolis Center
Mon 12:02:11 PM 38.3411 -84.5039 168° South 395 455 21,400 2,146 Climbing Indianapolis Center
Mon 12:03:12 PM 38.2322 -84.4753 168° South 398 458 23,500 1,951 Climbing Indianapolis Center
Mon 12:04:14 PM 38.1011 -84.4417 169° South 406 467 25,400 1,492 Climbing Indianapolis Center
Mon 12:06:17 PM 37.8594 -84.4356 179° South 433 498 28,100 1,200 Climbing Indianapolis Center
Mon 12:07:19 PM 37.7347 -84.4319 179° South 444 511 29,100 976 Climbing Indianapolis Center
Mon 12:08:20 PM 37.6072 -84.4269 178° South 457 526 30,100 1,415 Climbing Indianapolis Center
Mon 12:09:22 PM 37.4803 -84.4208 178° South 459 528 32,000 1,512 Climbing Indianapolis Center
Mon 12:10:23 PM 37.3572 -84.4156 178° South 447 514 33,200 1,171 Climbing Indianapolis Center
Mon 12:11:25 PM 37.2125 -84.4106 178° South 447 514 34,400 1,258 Climbing Indianapolis Center
Mon 12:12:27 PM 37.0911 -84.4064 178° South 439 505 35,800 1,415 Climbing Indianapolis Center
Mon 12:13:28 PM 36.9725 -84.4017 178° South 428 493 37,300 829 Climbing Indianapolis Center
Mon 12:14:30 PM 36.8567 -84.3975 178° South 418 481 37,500 244 Climbing Indianapolis Center
Mon 12:15:31 PM 36.7381 -84.3936 178° South 425 489 37,800 293 Climbing Indianapolis Center
Mon 12:16:33 PM 36.6169 -84.3875 178° South 433 498 38,100 290 Climbing Indianapolis Center
Mon 12:17:35 PM 36.4881 -84.3847 179° South 428 493 38,400 293 Climbing Indianapolis Center
Mon 12:18:36 PM 36.3689 -84.3783 178° South 427 491 38,700 294 Climbing Indianapolis Center
Mon 12:19:17 PM 36.2894 -84.3786 180° South 432 497 38,900 178 Climbing Atlanta Center
Mon 12:20:17 PM 36.1683 -84.3731 178° South 432 497 39,000 50 Climbing Atlanta Center
Mon 12:21:17 PM 36.0453 -84.3675 178° South 432 497 39,000 -400 Level Atlanta Center
Mon 12:22:17 PM 35.9286 -84.3619 178° South 432 497 38,200 -900 Descending Atlanta Center
Mon 12:23:17 PM 35.8158 -84.3614 180° South 432 497 37,200 -600 Descending Atlanta Center
Mon 12:24:17 PM 35.6969 -84.3558 178° South 426 490 37,000 -100 Descending Atlanta Center
Mon 12:25:17 PM 35.5822 -84.3528 179° South 421 484 37,000  Level Atlanta Center
Mon 12:26:17 PM 35.4656 -84.3472 178° South 421 484 37,000  Level Atlanta Center
Mon 12:27:17 PM 35.3486 -84.3417 178° South 421 484 37,000  Level Atlanta Center
Mon 12:28:17 PM 35.2339 -84.3414 180° South 421 484 37,000  Level Atlanta Center
Mon 12:29:17 PM 35.1192 -84.3358 178° South 421 484 37,000  Level Atlanta Center
Mon 12:30:17 PM 35.0064 -84.3328 179° South 421 484 37,000  Level Atlanta Center
Mon 12:31:17 PM 34.8814 -84.3275 178° South 415 478 37,000  Level Atlanta Center
Mon 12:32:17 PM 34.7644 -84.3219 178° South 416 479 37,000  Level Atlanta Center
Mon 12:33:17 PM 34.6497 -84.3192 179° South 416 479 37,000  Level Atlanta Center
Mon 12:34:17 PM 34.5328 -84.3136 178° South 422 486 37,000  Level Atlanta Center
Mon 12:35:17 PM 34.4158 -84.3108 179° South 422 486 37,000  Level Atlanta Center
Mon 12:36:17 PM 34.2992 -84.3053 178° South 422 486 37,000  Level Atlanta Center
Mon 12:37:17 PM 34.1822 -84.3100 182° South 422 486 37,000  Level Atlanta Center
Mon 12:38:17 PM 34.0756 -84.3297 189° South 427 491 37,000  Level Atlanta Center
Mon 12:39:17 PM 33.9650 -84.3569 192° South 427 491 37,000  Level Atlanta Center
Mon 12:40:17 PM 33.8481 -84.3864 192° South 423 487 37,000  Level Atlanta Center
Mon 12:41:17 PM 33.7414 -84.4111 191° South 423 487 37,000  Level Atlanta Center
Mon 12:42:17 PM 33.6225 -84.4231 185° South 429 494 37,000  Level Atlanta Center
Mon 12:43:17 PM 33.4911 -84.3825 166° South 422 486 37,000  Level Atlanta Center
Mon 12:44:17 PM 33.3786 -84.3322 160° South 428 493 37,000  Level Atlanta Center
Mon 12:45:17 PM 33.2658 -84.2847 161° South 437 503 37,000  Level Atlanta Center
Mon 12:46:17 PM 33.1492 -84.2397 162° South 437 503 37,000  Level Atlanta Center
Mon 12:47:17 PM 33.0386 -84.1875 158° South 442 509 37,000  Level Atlanta Center
Mon 12:48:17 PM 32.9239 -84.1428 162° South 442 509 37,000  Level Atlanta Center
Mon 12:49:17 PM 32.8069 -84.0981 162° South 442 509 37,000  Level Atlanta Center
Mon 12:50:17 PM 32.6922 -84.0486 160° South 442 509 37,000  Level Atlanta Center
Mon 12:51:17 PM 32.5772 -83.9994 160° South 442 509 37,000  Level Atlanta Center
Mon 12:52:17 PM 32.4606 -83.9553 162° South 442 509 37,000  Level Atlanta Center
Mon 12:53:17 PM 32.3456 -83.9061 160° South 442 509 37,000  Level Atlanta Center
Mon 12:54:17 PM 32.2308 -83.8597 161° South 442 509 37,000  Level Atlanta Center
Mon 12:55:56 PM 32.0506 -83.7847 161° South 430 495 37,000  Level Jacksonville Center
Mon 12:56:56 PM 31.9342 -83.7372 161° South 430 495 37,000  Level Jacksonville Center
Mon 12:57:56 PM 31.8194 -83.6922 162° South 435 501 37,000 -50 Level Jacksonville Center
Mon 12:58:56 PM 31.7028 -83.6422 160° South 440 506 36,900  Descending Jacksonville Center
Mon 12:59:56 PM 31.5694 -83.5925 162° South 455 524 37,000 50 Climbing Jacksonville Center
Mon 01:00:56 PM 31.4528 -83.5453 161° South 455 524 37,000  Level Jacksonville Center
Mon 01:01:56 PM 31.3342 -83.4981 161° South 455 524 37,000  Level Jacksonville Center
Mon 01:02:56 PM 31.2175 -83.4514 161° South 455 524 37,000  Level Jacksonville Center
Mon 01:03:56 PM 31.0964 -83.4044 162° South 455 524 37,000  Level Jacksonville Center
Mon 01:04:56 PM 30.9797 -83.3603 162° South 455 524 37,000  Level Jacksonville Center
Mon 01:05:56 PM 30.8608 -83.3114 161° South 455 524 37,000  Level Jacksonville Center
Mon 01:06:56 PM 30.7567 -83.2650 159° South 449 517 37,000 -50 Level Jacksonville Center
Mon 01:07:56 PM 30.6419 -83.2089 157° South 449 517 36,900  Descending Jacksonville Center
Mon 01:08:56 PM 30.5231 -83.1506 157° South 455 524 37,000 50 Climbing Jacksonville Center
Mon 01:09:56 PM 30.4083 -83.0925 156° South 455 524 37,000  Level Jacksonville Center
Mon 01:10:56 PM 30.2914 -83.0344 157° South 455 524 37,000 -50 Level Jacksonville Center
Mon 01:11:56 PM 30.1789 -82.9792 157° South 450 518 36,900 -50 Descending Jacksonville Center
Mon 01:12:56 PM 30.0661 -82.9214 156° South 445 512 36,900 50 Level Jacksonville Center
Mon 01:13:56 PM 29.9492 -82.8686 159° South 450 518 37,000 50 Climbing Jacksonville Center
Mon 01:14:56 PM 29.8344 -82.8111 156° South 450 518 37,000  Level Jacksonville Center
Mon 01:15:56 PM 29.7172 -82.7539 157° South 456 525 37,000  Level Jacksonville Center
Mon 01:16:56 PM 29.6044 -82.6992 157° South 456 525 37,000 -50 Level Jacksonville Center
Mon 01:17:56 PM 29.4750 -82.6325 156° South 456 525 36,900 -50 Descending Jacksonville Center
Mon 01:18:56 PM 29.3622 -82.5756 156° South 456 525 36,900 50 Level Jacksonville Center
Mon 01:19:56 PM 29.2450 -82.5189 157° South 456 525 37,000 50 Climbing Jacksonville Center
Mon 01:20:56 PM 29.1303 -82.4694 159° South 456 525 37,000  Level Jacksonville Center
Mon 01:21:56 PM 29.0089 -82.4511 172° South 434 499 37,000 -50 Level Jacksonville Center
Mon 01:22:56 PM 28.8922 -82.4586 183° South 434 499 36,900 -50 Descending Jacksonville Center
Mon 01:23:56 PM 28.7711 -82.4639 182° South 429 494 36,900 50 Level Jacksonville Center
Mon 01:24:56 PM 28.6522 -82.4761 185° South 429 494 37,000  Climbing Jacksonville Center
Mon 01:25:56 PM 28.5333 -82.4792 181° South 429 494 36,900  Descending Jacksonville Center
Mon 01:26:56 PM 28.4100 -82.4867 183° South 429 494 37,000 28 Climbing Jacksonville Center
Mon 01:29:27 PM 28.1061 -82.5050 183° South 437 503 37,000  Level Miami Center
Mon 01:30:27 PM 27.9872 -82.5039 180° South 416 479 37,000  Level Miami Center
Mon 01:31:27 PM 27.8611 -82.4764 169° South 433 498 37,000 -300 Level Miami Center
Mon 01:32:27 PM 27.7481 -82.4333 161° South 439 505 36,400 -750 Descending Miami Center
Mon 01:33:27 PM 27.6267 -82.3900 162° South 450 518 35,500 -950 Descending Miami Center
Mon 01:34:27 PM 27.5053 -82.3444 162° South 459 528 34,500 -950 Descending Miami Center
Mon 01:35:27 PM 27.3942 -82.3039 162° South 459 528 33,600 -1,000 Descending Miami Center
Mon 01:36:27 PM 27.2644 -82.2581 163° South 448 516 32,500 -1,000 Descending Miami Center
Mon 01:37:27 PM 27.1533 -82.2156 161° South 435 501 31,600 -900 Descending Miami Center
Mon 01:38:27 PM 27.0339 -82.1728 162° South 440 506 30,700 -950 Descending Miami Center
Mon 01:39:27 PM 26.9144 -82.1303 162° South 446 513 29,700 -1,000 Descending Miami Center
Mon 01:40:27 PM 26.8008 -82.0903 163° South 446 513 28,700 -1,350 Descending Miami Center
Mon 01:41:27 PM 26.7103 -81.9978 138° Southeast 428 493 27,000 -2,150 Descending Miami Center
Mon 01:42:27 PM 26.6433 -81.8833 123° Southeast 420 483 24,400 -2,400 Descending Miami Center
Mon 01:43:27 PM 26.5739 -81.7758 126° Southeast 426 490 22,200 -1,800 Descending Miami Center
Mon 01:44:27 PM 26.5086 -81.6711 125° Southeast 426 490 20,800 -2,200 Descending Miami Center
Mon 01:45:27 PM 26.4517 -81.5622 120° Southeast 410 472 17,800 -2,750 Descending Miami Center
Mon 01:46:27 PM 26.4069 -81.4583 116° Southeast 388 447 15,300 -1,950 Descending Miami Center
Mon 01:47:27 PM 26.3681 -81.3617 114° Southeast 361 415 13,900 -850 Descending Miami Center
Mon 01:48:27 PM 26.3292 -81.2653 114° Southeast 347 399 13,600 -887 Descending Miami Center
Mon 01:49:22 PM 26.2900 -81.1806 117° Southeast 330 380 12,200 -1,778 Descending Miami Center
Mon 01:51:36 PM 26.2097 -80.9947 116° Southeast 282 325 8,000 -1,427 Descending Miami Center
Mon 01:52:27 PM 26.1822 -80.9381 118° Southeast 278 320 7,800 -358 Descending Miami Center
Mon 01:52:43 PM 26.1656 -80.9306 158° South 242 278 7,600 -1,200 Descending Miami Center
Mon 01:53:27 PM 26.1269 -80.8922 138° Southeast 254 292 6,600 -1,279 Descending Miami Center
Mon 01:53:44 PM 26.1106 -80.8872 165° South 242 278 6,300 -700 Descending Miami Center
Mon 01:54:27 PM 26.0783 -80.8444 130° Southeast 246 283 5,900 -295 Descending Miami Center
Mon 01:54:45 PM 26.0767 -80.8258 96° East 244 281 6,000 100 Climbing Miami Center
Mon 01:55:27 PM 26.0781 -80.7706 88° East 217 250 6,000  Level Miami Center
Mon 01:55:46 PM 26.0747 -80.7472 99° East 240 276 6,000 -100 Level Miami Center
Mon 01:56:27 PM 26.0781 -80.6964 86° East 222 255 5,900  Descending Miami Center
Mon 01:56:53 PM 26.0831 -80.6689 79° East 243 280 6,000  Climbing Miami Center
Mon 01:57:27 PM 26.0986 -80.6278 67° East 222 255 5,900  Descending Miami Center
Mon 01:57:54 PM 26.1056 -80.6003 74° East 239 275 6,000 100 Climbing Miami Center
Mon 01:58:27 PM 26.1214 -80.5567 68° East 227 261 6,000  Level Miami Center
Mon 01:58:43 PM 26.1217 -80.5428 89° East 240 276 6,000 -67 Level Miami Center
Mon 01:59:56 PM 26.1447 -80.4511 74° East 239 275 5,900 -469 Descending Miami Center
Mon 02:00:51 PM 26.1211 -80.3925 114° Southeast 219 252 5,000 -1,190 Descending Miami Center
Mon 02:01:52 PM 26.0847 -80.3406 128° Southeast 203 234 3,600 -1,377 Descending Miami Center
Mon 02:02:53 PM 26.0736 -80.2869 103° East 174 200 2,200 -1,377 Descending Miami Center

Login

Don't have an account? Register now (free) for customized features, flight alerts, and more!